Time;durP1;ratioP1;P1;durP2;ratioP2;P2;SDS_P1;SDS_P2;PMS_P1;PMS_P2;Temp;Humidity;BMP_temperature;BMP_pressure;BME280_temperature;BME280_humidity;BME280_pressure;Samples;Min_cycle;Max_cycle;Signal;HPM_P1;HPM_P2
2021/07/19 00:02:19;;;;;;;8.20;7.40;;;;;;;20.31;92.04;95881.66;5038492;28;20210;-84
2021/07/19 00:04:46;;;;;;;10.75;8.00;;;;;;;20.29;91.68;95879.25;5038074;28;20213;-85
2021/07/19 00:07:14;;;;;;;8.35;7.50;;;;;;;20.27;92.17;95885.75;5035828;28;20490;-85
2021/07/19 00:09:44;;;;;;;8.50;7.70;;;;;;;20.23;92.40;95874.94;5035666;28;20205;-85
2021/07/19 00:12:12;;;;;;;9.73;7.80;;;;;;;20.19;93.06;95878.25;5035171;28;20256;-85
2021/07/19 00:14:38;;;;;;;10.20;8.00;;;;;;;20.23;92.55;95882.00;5035774;28;20586;-84
2021/07/19 00:17:05;;;;;;;8.88;7.97;;;;;;;20.21;92.23;95874.38;5035043;28;20206;-84
2021/07/19 00:19:33;;;;;;;8.35;7.55;;;;;;;20.22;91.74;95875.97;5036228;28;20230;-86
2021/07/19 00:21:59;;;;;;;8.95;7.88;;;;;;;20.17;92.33;95875.09;5036414;28;20586;-86
2021/07/19 00:24:26;;;;;;;8.77;7.88;;;;;;;20.13;92.50;95873.94;5036857;28;20547;-86
2021/07/19 00:26:52;;;;;;;8.80;7.97;;;;;;;20.08;92.69;95877.22;5035346;28;20206;-86
2021/07/19 00:29:20;;;;;;;8.18;7.38;;;;;;;20.05;92.87;95879.50;5035124;28;20205;-86
2021/07/19 00:31:46;;;;;;;9.52;7.63;;;;;;;20.05;92.49;95885.53;5034547;28;20846;-85
2021/07/19 00:34:13;;;;;;;8.48;7.68;;;;;;;20.01;92.64;95876.56;5034393;28;20220;-86
2021/07/19 00:36:41;;;;;;;8.60;7.75;;;;;;;20.06;92.16;95876.66;5034825;28;20226;-86
2021/07/19 00:39:09;;;;;;;8.32;7.15;;;;;;;20.09;91.97;95881.44;5033839;28;20292;-86
2021/07/19 00:41:38;;;;;;;8.15;6.97;;;;;;;20.12;91.48;95890.66;5035948;28;20222;-84
2021/07/19 00:44:05;;;;;;;10.68;7.00;;;;;;;20.11;91.81;95884.63;5036352;28;20297;-86
2021/07/19 00:46:32;;;;;;;8.38;7.68;;;;;;;20.13;91.34;95884.41;5034796;28;20201;-86
2021/07/19 00:48:58;;;;;;;8.18;7.38;;;;;;;20.14;91.25;95880.75;5035579;28;20194;-86
2021/07/19 00:51:25;;;;;;;8.45;7.50;;;;;;;20.14;90.99;95878.94;5034930;28;20569;-86
2021/07/19 00:53:53;;;;;;;8.73;7.93;;;;;;;20.11;91.26;95876.78;5036512;28;20210;-86
2021/07/19 00:56:21;;;;;;;9.20;8.05;;;;;;;20.04;91.71;95876.09;5036745;28;20202;-86
2021/07/19 00:58:50;;;;;;;9.10;7.65;;;;;;;19.98;92.38;95877.81;5036043;28;20697;-87
2021/07/19 01:01:18;;;;;;;7.82;7.03;;;;;;;19.97;92.49;95875.44;5035776;28;20198;-86
2021/07/19 01:03:47;;;;;;;8.48;7.57;;;;;;;19.98;92.87;95871.81;5036190;28;20213;-84
2021/07/19 01:06:18;;;;;;;9.00;8.10;;;;;;;20.06;92.17;95876.66;5035199;28;20209;-85
2021/07/19 01:08:45;;;;;;;9.82;7.72;;;;;;;20.05;92.25;95867.22;5035580;28;20225;-85
2021/07/19 01:11:14;;;;;;;8.60;7.80;;;;;;;19.99;92.87;95878.63;5035399;28;20240;-84
2021/07/19 01:13:41;;;;;;;8.52;7.72;;;;;;;20.05;92.37;95879.50;5035905;28;20229;-86
2021/07/19 01:16:07;;;;;;;8.93;7.05;;;;;;;20.06;92.13;95881.09;5036058;28;20209;-86
2021/07/19 01:18:34;;;;;;;7.85;7.15;;;;;;;20.10;91.66;95871.78;5035445;28;20226;-86
2021/07/19 01:21:33;;;;;;;8.85;7.43;;;;;;;20.10;91.06;95883.03;5034927;28;20729;-86
2021/07/19 01:24:27;;;;;;;9.27;8.13;;;;;;;20.07;91.80;95880.88;5034477;28;20206;-87
2021/07/19 01:27:51;;;;;;;8.35;7.35;;;;;;;20.06;91.91;95884.50;5035488;28;20217;-86
2021/07/19 01:30:19;;;;;;;8.00;7.30;;;;;;;20.07;91.56;95883.47;5011284;28;20209;-84
2021/07/19 01:32:50;;;;;;;7.95;7.22;;;;;;;20.06;91.56;95878.47;5034740;28;20256;-87
2021/07/19 01:35:18;;;;;;;10.35;7.55;;;;;;;20.07;91.63;95878.25;5035685;28;20810;-86
2021/07/19 01:37:47;;;;;;;9.52;7.32;;;;;;;20.07;91.75;95877.47;5034996;28;20204;-87
2021/07/19 01:40:14;;;;;;;9.10;7.15;;;;;;;19.99;92.16;95881.22;5035101;28;20218;-83
2021/07/19 01:42:42;;;;;;;8.05;7.30;;;;;;;19.98;92.31;95883.06;5034512;28;20646;-84
2021/07/19 01:45:11;;;;;;;9.70;7.38;;;;;;;20.00;91.98;95870.56;5035272;28;20682;-84
2021/07/19 01:47:39;;;;;;;8.73;7.82;;;;;;;19.98;91.79;95880.44;5034329;28;20206;-84
2021/07/19 01:50:08;;;;;;;8.43;7.70;;;;;;;19.98;91.89;95879.63;5034316;28;20194;-85
2021/07/19 01:52:35;;;;;;;7.93;7.13;;;;;;;19.92;92.50;95876.09;5035048;28;20294;-84
2021/07/19 01:55:03;;;;;;;8.85;8.05;;;;;;;19.91;92.56;95873.72;5034660;28;20210;-84
2021/07/19 01:57:30;;;;;;;8.07;7.22;;;;;;;19.89;92.72;95873.94;5035010;28;20206;-86
2021/07/19 01:59:59;;;;;;;8.43;7.50;;;;;;;19.93;91.88;95879.53;5035327;28;20242;-85
2021/07/19 02:02:26;;;;;;;7.80;7.10;;;;;;;19.96;91.49;95874.63;5034703;28;20234;-85
2021/07/19 02:04:54;;;;;;;8.77;7.13;;;;;;;19.98;91.04;95871.81;5035160;28;20202;-86
2021/07/19 02:07:23;;;;;;;8.00;7.30;;;;;;;19.92;91.53;95870.09;5034334;28;20210;-83
2021/07/19 02:09:52;;;;;;;8.98;7.18;;;;;;;19.88;91.60;95874.97;5034922;28;20202;-85
2021/07/19 02:12:19;;;;;;;9.20;6.93;;;;;;;19.90;91.33;95874.75;5034460;28;20749;-86
2021/07/19 02:14:46;;;;;;;7.88;6.85;;;;;;;19.85;91.24;95878.03;5035370;28;20854;-86
2021/07/19 02:17:14;;;;;;;8.15;7.45;;;;;;;19.79;90.69;95886.00;5034139;28;20209;-86
2021/07/19 02:19:42;;;;;;;7.85;7.15;;;;;;;19.74;90.87;95873.59;5034640;28;20217;-86
2021/07/19 02:22:11;;;;;;;8.57;7.72;;;;;;;19.73;90.75;95873.84;5034016;28;20233;-86
2021/07/19 02:24:38;;;;;;;8.00;7.30;;;;;;;19.70;90.88;95877.69;5034709;28;20236;-86
2021/07/19 02:27:07;;;;;;;9.65;7.45;;;;;;;19.60;91.30;95869.63;5034508;28;20206;-86
2021/07/19 02:29:34;;;;;;;8.02;6.97;;;;;;;19.60;91.43;95869.63;5034368;28;20202;-86
2021/07/19 02:32:02;;;;;;;9.27;7.65;;;;;;;19.55;91.29;95870.28;5034724;28;20630;-86
2021/07/19 02:34:31;;;;;;;8.15;7.35;;;;;;;19.53;91.39;95869.72;5035257;28;20198;-84
2021/07/19 02:36:58;;;;;;;8.30;7.50;;;;;;;19.37;92.17;95869.56;5035145;28;20217;-85
2021/07/19 02:39:28;;;;;;;8.98;8.00;;;;;;;19.30;92.64;95864.41;5035358;28;20226;-84
2021/07/19 02:41:56;;;;;;;8.27;7.47;;;;;;;19.32;92.79;95868.41;5035418;28;20226;-83
2021/07/19 02:44:23;;;;;;;8.52;7.70;;;;;;;19.35;92.14;95868.97;5035221;28;20232;-84
2021/07/19 02:46:51;;;;;;;8.45;7.75;;;;;;;19.35;92.70;95867.16;5035524;28;20206;-85
2021/07/19 02:49:19;;;;;;;8.00;7.38;;;;;;;19.42;92.04;95864.47;5035323;28;20516;-85
2021/07/19 02:51:46;;;;;;;7.88;7.07;;;;;;;19.41;91.82;95870.69;5034683;28;20222;-84
2021/07/19 02:54:14;;;;;;;7.70;6.90;;;;;;;19.44;91.15;95870.22;5034421;28;20738;-86
2021/07/19 02:56:42;;;;;;;7.65;6.95;;;;;;;19.49;90.73;95873.78;5033423;28;20204;-86
2021/07/19 02:59:09;;;;;;;6.90;6.30;;;;;;;19.51;90.27;95878.81;5033808;28;20698;-86
2021/07/19 03:01:36;;;;;;;7.63;6.93;;;;;;;19.49;89.90;95884.22;5036168;28;20280;-85
2021/07/19 03:04:03;;;;;;;7.38;6.75;;;;;;;19.51;89.94;95878.81;5041888;28;20194;-84
2021/07/19 03:06:34;;;;;;;6.90;6.30;;;;;;;19.48;89.37;95872.19;5042110;28;20198;-84
2021/07/19 03:09:04;;;;;;;7.28;6.55;;;;;;;19.44;89.91;95868.41;5043239;28;20232;-85
2021/07/19 03:11:36;;;;;;;8.40;6.40;;;;;;;19.44;89.34;95870.22;5042263;28;20713;-85
2021/07/19 03:14:07;;;;;;;7.03;6.43;;;;;;;19.48;89.28;95874.78;5042549;28;20205;-85
2021/07/19 03:16:34;;;;;;;7.88;7.07;;;;;;;19.48;88.85;95871.38;5042144;28;20202;-83
2021/07/19 03:19:03;;;;;;;7.15;6.50;;;;;;;19.40;89.22;95864.69;5041882;28;20212;-83
2021/07/19 03:21:33;;;;;;;7.35;6.65;;;;;;;19.34;88.88;95868.19;5039150;28;20301;-83
2021/07/19 03:24:02;;;;;;;7.93;7.13;;;;;;;19.31;89.27;95856.38;5036914;28;20214;-83
2021/07/19 03:26:29;;;;;;;7.65;6.40;;;;;;;19.31;89.50;95866.00;5037000;28;20208;-84
2021/07/19 03:28:57;;;;;;;6.93;6.13;;;;;;;19.32;89.12;95857.97;5036573;28;20209;-83
2021/07/19 03:31:28;;;;;;;7.07;6.38;;;;;;;19.28;89.10;95867.25;5036588;28;20265;-83
2021/07/19 03:33:55;;;;;;;7.28;6.55;;;;;;;19.24;89.04;95862.72;5036573;28;20195;-86
2021/07/19 03:36:23;;;;;;;7.82;7.03;;;;;;;19.21;89.23;95869.19;5036731;28;20206;-84
2021/07/19 03:38:49;;;;;;;6.78;6.25;;;;;;;19.19;88.57;95865.19;5036533;28;20202;-84
2021/07/19 03:41:16;;;;;;;6.88;6.28;;;;;;;19.16;88.97;95874.28;5035873;28;20233;-85
2021/07/19 03:43:45;;;;;;;7.20;6.50;;;;;;;19.11;89.63;95874.13;5037073;28;20204;-84
2021/07/19 03:46:12;;;;;;;7.85;7.07;;;;;;;19.04;90.24;95873.44;5037223;28;20190;-86
2021/07/19 03:48:41;;;;;;;6.90;6.30;;;;;;;19.06;90.62;95873.19;5036469;28;20210;-84
2021/07/19 03:51:08;;;;;;;6.72;6.07;;;;;;;19.09;90.12;95886.59;5037051;28;20198;-86
2021/07/19 03:53:35;;;;;;;6.97;6.28;;;;;;;19.15;90.22;95877.91;5037320;28;20266;-84
2021/07/19 03:56:05;;;;;;;7.63;6.32;;;;;;;19.16;89.79;95871.66;5037165;28;20202;-84
2021/07/19 03:58:32;;;;;;;7.10;6.40;;;;;;;19.19;89.33;95873.03;5036664;28;20206;-84
2021/07/19 04:00:59;;;;;;;6.97;6.38;;;;;;;19.22;88.53;95870.78;5036450;28;20443;-85
2021/07/19 04:03:29;;;;;;;7.03;6.53;;;;;;;19.12;89.45;95874.94;5035253;28;20276;-84
2021/07/19 04:06:00;;;;;;;7.07;6.38;;;;;;;19.17;89.55;95877.69;5035137;28;20213;-84
2021/07/19 04:08:28;;;;;;;7.15;6.40;;;;;;;19.17;88.72;95875.06;5035199;28;20300;-84
2021/07/19 04:10:55;;;;;;;6.68;6.18;;;;;;;19.20;88.57;95880.66;5035001;28;20217;-85
2021/07/19 04:13:21;;;;;;;7.20;6.60;;;;;;;19.22;88.99;95883.84;5034665;28;20233;-84
2021/07/19 04:15:50;;;;;;;6.25;5.65;;;;;;;19.23;89.03;95874.97;5034242;28;20198;-86
2021/07/19 04:18:17;;;;;;;8.07;6.30;;;;;;;19.25;88.64;95874.72;5035619;28;20237;-87
2021/07/19 04:20:44;;;;;;;6.60;6.00;;;;;;;19.30;88.02;95878.28;5034734;28;20221;-86
2021/07/19 04:23:14;;;;;;;6.50;5.90;;;;;;;19.30;88.07;95878.28;5034747;28;20225;-86
2021/07/19 04:25:46;;;;;;;7.00;6.40;;;;;;;19.29;88.00;95881.09;5035003;28;20275;-86
2021/07/19 04:28:14;;;;;;;10.73;6.95;;;;;;;19.28;88.22;95882.13;5035266;28;20248;-86
2021/07/19 04:30:45;;;;;;;6.35;5.85;;;;;;;19.28;88.32;95882.91;5035903;28;20194;-85
2021/07/19 04:33:16;;;;;;;6.95;6.35;;;;;;;19.27;88.66;95885.75;5035489;28;20218;-84
2021/07/19 04:35:45;;;;;;;7.65;6.00;;;;;;;19.28;88.75;95887.34;5036304;28;20209;-84
2021/07/19 04:38:14;;;;;;;7.75;5.90;;;;;;;19.29;89.09;95884.50;5036742;28;20198;-86
2021/07/19 04:40:41;;;;;;;6.38;5.88;;;;;;;19.34;88.55;95876.00;5035910;28;20222;-85
2021/07/19 04:43:08;;;;;;;6.68;6.15;;;;;;;19.36;88.05;95881.00;5035717;28;20222;-85
2021/07/19 04:45:34;;;;;;;6.53;5.80;;;;;;;19.36;88.06;95887.03;5035871;28;20206;-83
2021/07/19 04:48:01;;;;;;;8.95;5.85;;;;;;;19.39;87.09;95891.03;5035676;28;20258;-86
2021/07/19 04:50:29;;;;;;;6.32;5.72;;;;;;;19.37;87.31;95886.03;5035926;28;20206;-86
2021/07/19 04:52:56;;;;;;;6.10;5.57;;;;;;;19.39;87.43;95885.78;5036110;28;20221;-85
2021/07/19 04:55:26;;;;;;;6.00;5.40;;;;;;;19.40;87.25;95882.97;5036096;28;20209;-83
2021/07/19 04:57:56;;;;;;;6.30;5.80;;;;;;;19.45;87.21;95880.44;5034682;28;20210;-84
2021/07/19 05:00:25;;;;;;;5.88;5.43;;;;;;;19.45;87.35;95877.03;5035139;28;20224;-85
2021/07/19 05:02:53;;;;;;;6.85;6.18;;;;;;;19.49;87.06;95883.41;5034147;28;20745;-86
2021/07/19 05:05:23;;;;;;;6.55;5.95;;;;;;;19.46;87.43;95883.88;5035257;28;20202;-85
2021/07/19 05:07:51;;;;;;;5.97;5.38;;;;;;;19.54;87.15;95880.97;5034394;28;20577;-85
2021/07/19 05:10:20;;;;;;;6.20;5.60;;;;;;;19.50;88.24;95880.63;5034641;28;20194;-86
2021/07/19 05:12:51;;;;;;;6.32;5.60;;;;;;;19.42;89.16;95883.53;5034033;28;20222;-87
2021/07/19 05:15:18;;;;;;;6.40;5.22;;;;;;;19.46;89.42;95884.66;5035846;28;20206;-84
2021/07/19 05:17:45;;;;;;;6.20;5.60;;;;;;;19.30;91.58;95877.47;5034606;28;20198;-85
2021/07/19 05:20:16;;;;;;;5.97;5.50;;;;;;;19.37;90.01;95880.00;5034510;28;20226;-84
2021/07/19 05:22:46;;;;;;;6.72;5.57;;;;;;;19.42;89.85;95886.16;5034191;28;20297;-84
2021/07/19 05:25:16;;;;;;;8.10;5.80;;;;;;;19.44;89.86;95883.28;5033878;28;20642;-85
2021/07/19 05:28:06;;;;;;;5.90;5.40;;;;;;;19.58;88.05;95879.50;5034851;28;20204;-84
2021/07/19 05:30:39;;;;;;;5.82;5.30;;;;;;;19.68;86.96;95877.13;5035484;28;20209;-87
2021/07/19 05:33:05;;;;;;;6.05;5.45;;;;;;;19.75;87.20;95877.81;5035220;28;20261;-85
2021/07/19 05:35:32;;;;;;;5.50;4.97;;;;;;;19.83;86.31;95872.22;5035352;28;20209;-86
2021/07/19 05:37:59;;;;;;;5.03;4.63;;;;;;;19.88;86.74;95868.94;5035011;28;20205;-86
2021/07/19 05:40:25;;;;;;;8.07;5.43;;;;;;;19.93;86.78;95874.28;5034608;28;20214;-85
2021/07/19 05:42:52;;;;;;;6.38;5.13;;;;;;;20.05;86.46;95869.84;5034532;28;20287;-85
2021/07/19 05:45:20;;;;;;;6.68;5.55;;;;;;;20.13;85.71;95869.50;5034863;28;20666;-86
2021/07/19 05:47:47;;;;;;;6.32;5.70;;;;;;;20.16;86.05;95874.28;5034649;28;20201;-86
2021/07/19 05:50:14;;;;;;;5.95;5.32;;;;;;;20.25;85.92;95872.09;5035286;28;20197;-86
2021/07/19 05:52:40;;;;;;;6.13;5.50;;;;;;;20.29;86.20;95879.25;5034499;28;20708;-86
2021/07/19 05:55:07;;;;;;;6.05;5.38;;;;;;;20.32;85.77;95875.41;5035535;28;20212;-86
2021/07/19 05:57:35;;;;;;;6.90;4.90;;;;;;;20.43;85.95;95874.59;5035318;28;20202;-84
2021/07/19 06:00:01;;;;;;;6.03;5.53;;;;;;;20.45;86.00;95876.97;5034357;28;20546;-85
2021/07/19 06:02:32;;;;;;;6.30;5.80;;;;;;;20.49;86.09;95878.91;5033065;28;20714;-85
2021/07/19 06:04:59;;;;;;;6.70;6.00;;;;;;;20.49;86.46;95875.50;5034165;28;20225;-86
2021/07/19 06:07:26;;;;;;;7.40;6.15;;;;;;;20.56;85.72;95882.22;5033584;28;20271;-86
2021/07/19 06:09:52;;;;;;;7.13;6.40;;;;;;;20.65;85.34;95877.38;5034502;28;20201;-86
2021/07/19 06:12:19;;;;;;;7.43;6.75;;;;;;;20.74;84.91;95878.63;5033398;28;20225;-86
2021/07/19 06:14:45;;;;;;;7.05;6.43;;;;;;;20.86;84.53;95884.59;5033829;28;20208;-86
2021/07/19 06:17:13;;;;;;;7.45;6.72;;;;;;;20.94;84.00;95879.00;5033493;28;20208;-86
2021/07/19 06:19:42;;;;;;;9.15;7.30;;;;;;;20.84;83.78;95878.81;5033277;28;20198;-87
2021/07/19 06:22:24;;;;;;;7.75;7.05;;;;;;;20.89;83.51;95878.13;5033654;28;20230;-86
2021/07/19 06:24:58;;;;;;;7.65;6.90;;;;;;;21.02;83.17;95878.63;5035214;28;20232;-86
2021/07/19 06:27:27;;;;;;;8.43;7.45;;;;;;;21.07;82.28;95883.16;5034143;28;20240;-86
2021/07/19 06:29:58;;;;;;;8.02;7.25;;;;;;;21.09;82.34;95875.88;5033629;28;20237;-86
2021/07/19 06:32:24;;;;;;;8.32;7.65;;;;;;;21.07;81.50;95879.75;5034246;28;20276;-84
2021/07/19 06:34:52;;;;;;;7.65;6.95;;;;;;;20.99;82.18;95873.06;5033611;28;20194;-85
2021/07/19 06:37:49;;;;;;;7.88;7.07;;;;;;;20.97;82.72;95872.50;5034013;28;20289;-86
2021/07/19 06:40:26;;;;;;;7.60;6.90;;;;;;;21.09;82.79;95875.06;4976380;28;20220;-85
2021/07/19 06:42:55;;;;;;;8.10;7.18;;;;;;;21.13;81.88;95881.44;5037342;28;20218;-84
2021/07/19 06:45:32;;;;;;;8.40;7.63;;;;;;;21.17;81.47;95878.09;5038609;28;20264;-86
2021/07/19 06:48:10;;;;;;;8.32;7.53;;;;;;;21.22;81.87;95875.59;5039071;28;20233;-85
2021/07/19 06:50:46;;;;;;;8.63;7.30;;;;;;;21.34;81.46;95880.78;5039087;28;20225;-86
2021/07/19 06:53:13;;;;;;;7.70;7.00;;;;;;;21.42;80.64;95874.34;5039316;28;20218;-85
2021/07/19 06:55:47;;;;;;;8.70;7.38;;;;;;;21.50;80.58;95872.16;5039224;28;20206;-86
2021/07/19 06:58:14;;;;;;;9.15;7.28;;;;;;;21.59;79.97;95869.91;5038311;28;20628;-85
2021/07/19 07:00:41;;;;;;;7.22;6.63;;;;;;;21.68;79.93;95866.66;5038352;28;20229;-86
2021/07/19 07:03:08;;;;;;;8.00;7.20;;;;;;;21.73;80.18;95863.34;5037648;28;20325;-87
2021/07/19 07:05:34;;;;;;;8.55;7.78;;;;;;;21.64;79.96;95857.69;5037125;28;20289;-86
2021/07/19 07:08:03;;;;;;;7.75;6.88;;;;;;;21.70;80.21;95866.44;5037626;28;20234;-86
2021/07/19 07:10:30;;;;;;;8.82;7.15;;;;;;;21.82;79.49;95856.63;5037605;28;20242;-86
2021/07/19 07:12:56;;;;;;;7.30;6.63;;;;;;;21.94;78.75;95854.69;5036552;28;20240;-86
2021/07/19 07:15:26;;;;;;;8.05;7.20;;;;;;;22.02;78.43;95853.53;5036383;28;20202;-87
2021/07/19 07:17:52;;;;;;;7.93;7.03;;;;;;;21.95;76.04;95856.28;5035568;28;20274;-87
2021/07/19 07:20:20;;;;;;;7.60;6.90;;;;;;;22.04;76.46;95865.38;5036192;28;20525;-86
2021/07/19 07:22:47;;;;;;;8.85;7.18;;;;;;;22.08;77.12;95863.06;5035200;28;20214;-86
2021/07/19 07:25:14;;;;;;;8.63;6.50;;;;;;;22.12;76.21;95858.94;5035647;28;20402;-86
2021/07/19 07:27:41;;;;;;;8.35;7.25;;;;;;;22.17;76.71;95864.22;5036318;28;20639;-86
2021/07/19 07:30:11;;;;;;;8.18;7.38;;;;;;;22.18;76.21;95862.41;5036317;28;20198;-86
2021/07/19 07:32:39;;;;;;;8.30;6.78;;;;;;;22.20;75.77;95861.13;5035876;28;20229;-87
2021/07/19 07:35:07;;;;;;;7.30;6.65;;;;;;;22.27;74.29;95863.59;5036372;28;20198;-86
2021/07/19 07:37:34;;;;;;;7.68;6.97;;;;;;;22.36;75.98;95860.28;5036966;28;20209;-86
2021/07/19 07:40:03;;;;;;;8.05;7.10;;;;;;;22.38;72.49;95860.84;5036523;28;20689;-86
2021/07/19 07:42:32;;;;;;;7.10;6.43;;;;;;;22.45;73.58;95857.25;5036800;28;20244;-86
2021/07/19 07:44:59;;;;;;;8.05;7.10;;;;;;;22.54;73.51;95851.31;5037292;28;20252;-87
2021/07/19 07:47:26;;;;;;;7.50;6.80;;;;;;;22.61;74.03;95851.13;5035984;28;20194;-87
2021/07/19 07:49:53;;;;;;;7.60;6.60;;;;;;;22.71;71.71;95851.22;5036425;28;20197;-85
2021/07/19 07:52:20;;;;;;;7.88;7.03;;;;;;;22.77;71.34;95855.53;5036638;28;20225;-86
2021/07/19 07:54:48;;;;;;;9.57;6.72;;;;;;;22.82;72.12;95855.59;5034520;28;20206;-84
2021/07/19 07:57:15;;;;;;;7.68;6.97;;;;;;;22.95;71.91;95851.78;5035789;28;20206;-84
2021/07/19 07:59:43;;;;;;;7.57;6.78;;;;;;;23.03;70.91;95859.22;5034612;28;20265;-84
2021/07/19 08:02:10;;;;;;;7.50;6.70;;;;;;;23.10;70.18;95857.19;5035962;28;20316;-85
2021/07/19 08:04:37;;;;;;;8.00;7.20;;;;;;;23.18;69.81;95846.22;5035294;28;20213;-85
2021/07/19 08:07:04;;;;;;;7.30;6.57;;;;;;;23.30;69.34;95853.94;5035545;28;20206;-85
2021/07/19 08:09:31;;;;;;;7.22;6.63;;;;;;;23.29;67.97;95850.53;5033988;28;20205;-85
2021/07/19 08:11:59;;;;;;;7.85;6.07;;;;;;;23.32;68.68;95844.78;5035063;28;20218;-85
2021/07/19 08:14:26;;;;;;;7.80;7.10;;;;;;;23.40;68.38;95846.97;5034787;28;20209;-85
2021/07/19 08:16:54;;;;;;;7.40;6.70;;;;;;;23.53;68.27;95847.59;5033628;28;20208;-87
2021/07/19 08:19:22;;;;;;;7.72;6.30;;;;;;;23.63;68.35;95848.50;5035282;28;20198;-85
2021/07/19 08:21:56;;;;;;;7.95;6.50;;;;;;;23.81;67.58;95842.03;5033267;28;20241;-85
2021/07/19 08:24:25;;;;;;;8.98;6.50;;;;;;;23.99;66.26;95840.81;5034606;28;20225;-86
2021/07/19 08:26:52;;;;;;;7.85;6.00;;;;;;;24.08;65.33;95845.34;5034513;28;20205;-87
2021/07/19 08:29:18;;;;;;;6.38;5.78;;;;;;;24.23;65.63;95844.66;5035099;28;20217;-83
2021/07/19 08:31:45;;;;;;;6.93;6.22;;;;;;;24.28;64.96;95838.63;5033529;28;20800;-83
2021/07/19 08:34:15;;;;;;;7.43;6.13;;;;;;;24.38;64.26;95838.69;5033098;28;20248;-83
2021/07/19 08:36:41;;;;;;;6.43;5.70;;;;;;;24.39;64.12;95842.91;5032753;28;20244;-83
2021/07/19 08:39:11;;;;;;;6.38;5.78;;;;;;;24.54;64.67;95835.06;5032372;28;20198;-83
2021/07/19 08:41:37;;;;;;;6.57;5.97;;;;;;;24.65;63.78;95830.59;5032738;28;20317;-83
2021/07/19 08:44:07;;;;;;;8.95;6.25;;;;;;;24.83;64.09;95832.75;5034056;28;20198;-83
2021/07/19 08:46:35;;;;;;;6.55;5.95;;;;;;;24.84;64.68;95829.06;5032318;28;20289;-85
2021/07/19 08:49:02;;;;;;;8.45;5.85;;;;;;;24.71;64.28;95830.38;5032082;28;20658;-85
2021/07/19 08:51:30;;;;;;;7.13;5.65;;;;;;;24.50;63.41;95825.28;5031171;28;20190;-86
2021/07/19 08:53:59;;;;;;;6.47;5.88;;;;;;;24.50;63.48;95833.19;5031919;28;20301;-86
2021/07/19 08:56:27;;;;;;;5.97;5.35;;;;;;;24.68;62.76;95830.09;5032095;28;20202;-84
2021/07/19 08:58:54;;;;;;;5.45;4.95;;;;;;;24.93;59.66;95835.44;5032047;28;20237;-83
2021/07/19 09:01:21;;;;;;;5.25;4.57;;;;;;;24.67;61.36;95826.66;5030615;28;20651;-84
2021/07/19 09:03:48;;;;;;;5.65;4.85;;;;;;;24.52;59.38;95831.88;5032159;28;20585;-83
2021/07/19 09:06:15;;;;;;;6.40;4.88;;;;;;;24.48;59.43;95825.56;5031871;28;20200;-84
2021/07/19 09:08:50;;;;;;;6.32;5.03;;;;;;;24.75;58.93;95828.03;5031797;28;20198;-83
2021/07/19 09:11:20;;;;;;;7.68;5.60;;;;;;;24.70;56.69;95823.53;5030935;28;20202;-84
2021/07/19 09:13:59;;;;;;;5.20;4.70;;;;;;;24.54;57.56;95823.75;5030870;28;20288;-83
2021/07/19 09:16:26;;;;;;;7.28;5.65;;;;;;;24.39;58.68;95824.47;5030656;28;20190;-84
2021/07/19 09:19:03;;;;;;;5.97;5.20;;;;;;;24.25;60.50;95816.25;5031416;28;20205;-84
2021/07/19 09:21:42;;;;;;;5.15;4.68;;;;;;;24.21;61.95;95827.53;5031149;28;20232;-84
2021/07/19 09:24:11;;;;;;;6.65;5.32;;;;;;;24.52;62.04;95824.00;5031622;28;20654;-85
2021/07/19 09:26:41;;;;;;;6.28;5.50;;;;;;;24.83;62.21;95821.44;5031296;28;20634;-85
2021/07/19 09:29:10;;;;;;;8.60;5.90;;;;;;;24.84;61.29;95817.75;5031057;28;20234;-86
2021/07/19 09:31:38;;;;;;;6.10;5.50;;;;;;;24.66;57.30;95817.19;5030603;28;20214;-86
2021/07/19 09:34:12;;;;;;;6.70;5.07;;;;;;;24.61;59.44;95816.41;5030684;28;20229;-87
2021/07/19 09:36:39;;;;;;;6.30;5.68;;;;;;;24.39;58.37;95808.69;5030577;28;20205;-88
2021/07/19 09:39:07;;;;;;;6.13;5.57;;;;;;;24.82;59.06;95811.97;5030170;28;20213;-87
2021/07/19 09:41:37;;;;;;;6.03;5.22;;;;;;;25.21;57.47;95801.78;5029987;28;20229;-88
2021/07/19 09:44:08;;;;;;;7.47;5.13;;;;;;;25.51;56.82;95808.88;5030529;28;20206;-86
2021/07/19 09:46:35;;;;;;;5.53;4.90;;;;;;;25.60;55.60;95802.00;5031250;28;20213;-83
2021/07/19 09:49:02;;;;;;;5.63;5.13;;;;;;;25.65;56.70;95800.19;5032382;28;20206;-84
2021/07/19 09:51:29;;;;;;;5.32;4.90;;;;;;;25.36;57.09;95799.16;5030653;28;20564;-83
2021/07/19 09:53:55;;;;;;;8.68;4.90;;;;;;;25.18;56.60;95803.09;5032588;28;20202;-85
2021/07/19 09:56:23;;;;;;;6.03;5.43;;;;;;;25.20;56.37;95797.56;5031317;28;20210;-85
2021/07/19 09:58:52;;;;;;;5.20;4.80;;;;;;;25.22;56.73;95798.84;5031878;28;20297;-85
2021/07/19 10:01:29;;;;;;;6.32;4.70;;;;;;;25.06;55.54;95795.44;5031114;28;20701;-85
2021/07/19 10:04:05;;;;;;;4.93;4.53;;;;;;;24.86;57.13;95795.38;5030613;28;20684;-85
2021/07/19 10:06:33;;;;;;;5.35;4.93;;;;;;;24.89;57.78;95788.78;5030693;28;20208;-85
2021/07/19 10:09:00;;;;;;;5.20;4.72;;;;;;;25.35;58.30;95784.38;5031388;28;20216;-83
2021/07/19 10:11:31;;;;;;;7.25;4.63;;;;;;;25.45;54.91;95787.00;5031499;28;20202;-83
2021/07/19 10:13:59;;;;;;;5.43;4.90;;;;;;;25.30;57.53;95792.28;5034891;28;20785;-85
2021/07/19 10:16:28;;;;;;;5.13;4.65;;;;;;;25.22;57.31;95788.31;5035170;28;20227;-84
2021/07/19 10:18:56;;;;;;;8.13;5.07;;;;;;;25.70;56.19;95786.22;5034197;28;20209;-85
2021/07/19 10:21:23;;;;;;;4.93;4.43;;;;;;;26.13;55.86;95790.06;5034221;28;20208;-85
2021/07/19 10:23:50;;;;;;;4.90;4.38;;;;;;;25.96;55.85;95784.31;5034367;28;20697;-85
2021/07/19 10:26:18;;;;;;;5.97;4.43;;;;;;;25.81;54.24;95783.28;5035319;28;20207;-85
2021/07/19 10:28:46;;;;;;;5.45;4.63;;;;;;;25.71;54.12;95774.59;5035825;28;20202;-83
2021/07/19 10:31:18;;;;;;;5.97;5.00;;;;;;;25.83;55.53;95774.31;5034157;28;20206;-84
2021/07/19 10:33:46;;;;;;;6.70;4.90;;;;;;;26.23;54.80;95786.56;5034199;28;20205;-84
2021/07/19 10:36:16;;;;;;;4.57;4.13;;;;;;;26.53;52.34;95777.78;5034699;28;20213;-83
2021/07/19 10:38:43;;;;;;;5.55;4.55;;;;;;;26.78;51.00;95774.97;5034006;28;20213;-84
2021/07/19 10:41:11;;;;;;;6.07;4.60;;;;;;;26.92;49.14;95778.59;5033376;28;20693;-84
2021/07/19 10:43:38;;;;;;;6.80;4.68;;;;;;;27.07;48.25;95780.38;5033849;28;20233;-84
2021/07/19 10:46:11;;;;;;;5.65;4.53;;;;;;;27.15;49.51;95767.31;5034175;28;20202;-85
2021/07/19 10:48:41;;;;;;;7.75;4.60;;;;;;;27.25;49.23;95766.47;5033619;28;20198;-85
2021/07/19 10:51:20;;;;;;;5.30;4.35;;;;;;;27.43;48.45;95768.44;5033866;28;20737;-85
2021/07/19 10:53:52;;;;;;;4.93;4.53;;;;;;;27.63;48.79;95764.03;5033827;28;20202;-85
2021/07/19 10:56:28;;;;;;;6.25;4.32;;;;;;;27.53;48.30;95762.25;5034119;28;20251;-85
2021/07/19 10:58:57;;;;;;;5.20;4.38;;;;;;;27.01;48.92;95763.75;5033883;28;20901;-85
2021/07/19 11:01:28;;;;;;;7.93;6.35;;;;;;;26.58;50.48;95764.53;5032440;28;20239;-85
2021/07/19 11:04:00;;;;;;;7.88;4.93;;;;;;;26.19;50.17;95765.19;5033553;28;20256;-85
2021/07/19 11:06:32;;;;;;;4.65;4.25;;;;;;;26.12;49.13;95760.22;5033295;28;20196;-85
2021/07/19 11:09:01;;;;;;;6.63;3.70;;;;;;;26.43;47.94;95758.25;5033554;28;20289;-85
2021/07/19 11:11:30;;;;;;;4.63;3.80;;;;;;;26.63;46.65;95761.84;5033036;28;20582;-84
2021/07/19 11:13:58;;;;;;;5.10;3.75;;;;;;;26.99;45.76;95760.59;5033571;28;20206;-83
2021/07/19 11:16:24;;;;;;;4.90;3.50;;;;;;;27.21;45.01;95751.44;5032810;28;20592;-86
2021/07/19 11:19:01;;;;;;;3.53;3.10;;;;;;;27.51;45.37;95751.19;5033249;28;20259;-84
2021/07/19 11:21:30;;;;;;;4.63;3.53;;;;;;;27.67;44.61;95749.19;5032995;28;20202;-84
2021/07/19 11:24:07;;;;;;;4.45;2.90;;;;;;;27.60;41.03;95744.22;5032188;28;20198;-84
2021/07/19 11:26:34;;;;;;;7.38;3.10;;;;;;;27.74;41.82;95747.78;5032941;28;20544;-85
2021/07/19 11:29:01;;;;;;;7.40;3.13;;;;;;;27.83;41.77;95742.66;5032917;28;20202;-84
2021/07/19 11:31:29;;;;;;;4.22;3.22;;;;;;;27.91;41.95;95734.09;5032705;28;20194;-83
2021/07/19 11:34:06;;;;;;;5.07;3.15;;;;;;;27.99;43.65;95732.69;5033167;28;20289;-84
2021/07/19 11:36:44;;;;;;;6.18;3.13;;;;;;;28.14;42.60;95732.50;5033593;28;20206;-84
2021/07/19 11:39:19;;;;;;;5.30;3.00;;;;;;;28.27;42.27;95728.41;5032887;28;20198;-85
2021/07/19 11:41:46;;;;;;;8.05;3.10;;;;;;;28.41;41.73;95729.28;5032376;28;20254;-84
2021/07/19 11:44:20;;;;;;;5.10;3.38;;;;;;;28.48;42.15;95727.06;5032999;28;20577;-85